Time;durP1;ratioP1;P1;durP2;ratioP2;P2;SDS_P1;SDS_P2;PMS_P1;PMS_P2;Temp;Humidity;BMP_temperature;BMP_pressure;BME280_temperature;BME280_humidity;BME280_pressure;Samples;Min_cycle;Max_cycle;Signal;HPM_P1;HPM_P2
2022/07/22 00:00:34;;;;;;;5.87;1.57;;;;;;;15.35;93.72;99972.50;5024395;28;20295;-57
2022/07/22 00:03:05;;;;;;;3.70;1.47;;;;;;;15.61;93.82;99973.19;5024679;28;20604;-59
2022/07/22 00:05:36;;;;;;;6.30;2.00;;;;;;;15.82;93.04;99977.56;5025149;28;20284;-57
2022/07/22 00:08:07;;;;;;;3.43;1.30;;;;;;;15.92;91.05;99968.34;5025524;28;20469;-60
2022/07/22 00:10:37;;;;;;;3.70;1.40;;;;;;;15.84;89.64;99975.75;5024326;28;20308;-59
2022/07/22 00:13:10;;;;;;;4.87;1.63;;;;;;;15.86;89.79;99981.81;5025734;28;20300;-59
2022/07/22 00:15:41;;;;;;;7.27;2.10;;;;;;;15.86;89.89;99984.44;5025290;28;20284;-59
2022/07/22 00:18:11;;;;;;;8.90;2.00;;;;;;;15.99;90.57;99978.66;5021990;28;20303;-59
2022/07/22 00:20:42;;;;;;;7.03;2.20;;;;;;;15.92;89.74;99984.16;5023000;28;20311;-60
2022/07/22 00:23:13;;;;;;;5.80;1.87;;;;;;;15.89;90.46;99984.31;5024287;28;20603;-60
2022/07/22 00:25:44;;;;;;;3.50;1.40;;;;;;;15.94;90.17;99987.59;5025576;28;20295;-57
2022/07/22 00:28:16;;;;;;;4.23;1.80;;;;;;;16.00;91.02;99985.63;5025773;28;20284;-59
2022/07/22 00:30:47;;;;;;;5.43;2.07;;;;;;;16.16;90.57;99986.69;5025651;28;20280;-58
2022/07/22 00:33:22;;;;;;;10.20;2.07;;;;;;;16.27;89.13;99989.69;5023294;28;20604;-59
2022/07/22 00:35:53;;;;;;;6.30;2.20;;;;;;;16.20;88.96;99984.75;5025499;28;20310;-59
2022/07/22 00:38:23;;;;;;;3.27;1.83;;;;;;;16.30;88.98;99989.56;5025806;28;20311;-58
2022/07/22 00:40:54;;;;;;;4.70;2.07;;;;;;;16.16;86.96;99997.22;5025694;28;20277;-59
2022/07/22 00:43:27;;;;;;;5.07;2.00;;;;;;;16.08;88.07;99986.16;5025676;28;20336;-58
2022/07/22 00:45:57;;;;;;;5.40;2.03;;;;;;;16.17;88.97;99977.81;5025239;28;20313;-58
2022/07/22 00:48:28;;;;;;;8.13;2.50;;;;;;;16.21;88.59;99984.69;5023893;28;20308;-60
2022/07/22 00:50:59;;;;;;;6.10;1.97;;;;;;;16.36;88.53;99993.69;5025122;28;20574;-60
2022/07/22 00:53:29;;;;;;;5.97;2.60;;;;;;;16.52;87.67;99993.84;5024880;28;20301;-59
2022/07/22 00:56:00;;;;;;;6.60;2.17;;;;;;;16.47;85.58;99987.94;5025498;28;20280;-59
2022/07/22 00:58:33;;;;;;;11.90;2.40;;;;;;;16.56;85.04;99990.16;5025182;28;20288;-60
2022/07/22 01:01:03;;;;;;;8.77;2.03;;;;;;;16.70;85.01;99997.44;5023827;28;20284;-60
2022/07/22 01:03:34;;;;;;;6.37;2.30;;;;;;;16.72;84.42;99985.88;5023868;28;21212;-60
2022/07/22 01:06:09;;;;;;;6.67;2.27;;;;;;;16.71;84.69;99984.19;5024122;28;20288;-60
2022/07/22 01:08:40;;;;;;;9.63;2.00;;;;;;;16.68;84.89;99984.34;5025755;28;20293;-59
2022/07/22 01:11:12;;;;;;;4.97;1.90;;;;;;;16.71;85.18;99984.19;5025089;28;20276;-59
2022/07/22 01:13:46;;;;;;;3.83;1.80;;;;;;;16.83;85.15;99985.44;5024662;28;20474;-59
2022/07/22 01:16:17;;;;;;;4.87;2.10;;;;;;;16.82;83.17;99981.06;5024700;28;20277;-60
2022/07/22 01:18:48;;;;;;;6.53;2.33;;;;;;;16.90;84.47;99983.34;5024610;28;20301;-58
2022/07/22 01:21:20;;;;;;;5.07;2.47;;;;;;;17.04;84.27;99991.47;5024407;28;20285;-58
2022/07/22 01:23:51;;;;;;;3.03;1.90;;;;;;;16.89;82.30;99979.00;5021365;28;20291;-59
2022/07/22 01:26:22;;;;;;;6.17;2.27;;;;;;;16.75;82.47;99983.13;5024071;28;20288;-60
2022/07/22 01:28:53;;;;;;;3.77;1.77;;;;;;;16.72;82.37;99985.88;5024493;28;20280;-59
2022/07/22 01:31:24;;;;;;;4.53;2.13;;;;;;;16.68;84.30;99979.06;5022336;28;20334;-60
2022/07/22 01:33:54;;;;;;;4.30;1.60;;;;;;;16.57;84.25;99987.47;5022336;28;20367;-60
2022/07/22 01:36:27;;;;;;;5.33;1.70;;;;;;;16.55;84.67;99983.19;5021079;28;20281;-61
2022/07/22 01:38:57;;;;;;;2.67;1.30;;;;;;;16.59;84.09;99990.03;5022755;28;20285;-58
2022/07/22 01:41:29;;;;;;;4.33;1.60;;;;;;;16.66;83.90;100002.00;5024284;28;20290;-60
2022/07/22 01:43:59;;;;;;;3.53;1.77;;;;;;;16.65;82.64;99997.66;5024157;28;20449;-58
2022/07/22 01:46:30;;;;;;;4.87;1.60;;;;;;;16.67;83.94;99990.53;5023147;28;20292;-59
2022/07/22 01:49:00;;;;;;;8.47;2.00;;;;;;;16.70;84.87;99992.16;5021753;28;20367;-60
2022/07/22 01:51:33;;;;;;;3.83;1.70;;;;;;;16.81;83.80;99988.13;5024015;28;20304;-59
2022/07/22 01:54:03;;;;;;;5.70;1.87;;;;;;;16.85;84.01;99995.91;5024215;28;20457;-60
2022/07/22 01:56:34;;;;;;;5.30;1.80;;;;;;;16.94;83.93;99984.94;5021363;28;20589;-60
2022/07/22 01:59:04;;;;;;;5.37;1.90;;;;;;;17.05;84.74;99987.94;5023022;28;20273;-59
2022/07/22 02:01:35;;;;;;;5.83;2.20;;;;;;;17.00;82.71;99984.66;5024909;28;20356;-61
2022/07/22 02:04:06;;;;;;;6.13;2.07;;;;;;;16.97;82.85;99992.69;5021556;28;20297;-59
2022/07/22 02:06:38;;;;;;;7.37;2.10;;;;;;;17.00;82.81;100000.50;5022715;28;20298;-60
2022/07/22 02:09:09;;;;;;;3.37;2.10;;;;;;;16.99;82.62;99989.06;5024531;28;20289;-59
2022/07/22 02:11:40;;;;;;;7.40;2.80;;;;;;;17.09;83.39;99984.19;5023440;28;20592;-60
2022/07/22 02:14:11;;;;;;;5.03;1.93;;;;;;;17.09;81.43;99986.00;5026086;28;20310;-59
2022/07/22 02:16:41;;;;;;;3.93;1.90;;;;;;;16.92;81.36;99992.06;5028116;28;20292;-60
2022/07/22 02:19:12;;;;;;;4.30;2.23;;;;;;;16.86;82.71;99982.66;5025855;28;20579;-58
2022/07/22 02:21:45;;;;;;;5.00;2.17;;;;;;;16.93;82.12;99977.94;5028205;28;20284;-58
2022/07/22 02:24:15;;;;;;;4.13;2.20;;;;;;;17.08;82.71;99998.34;5028064;28;20285;-60
2022/07/22 02:26:46;;;;;;;13.43;2.83;;;;;;;17.16;81.34;100001.47;5028059;28;20281;-59
2022/07/22 02:29:16;;;;;;;7.13;2.23;;;;;;;17.17;81.01;99987.34;5027728;28;20289;-59
2022/07/22 02:31:47;;;;;;;6.90;2.30;;;;;;;17.15;81.16;99998.91;5027663;28;20561;-59
2022/07/22 02:34:18;;;;;;;3.90;2.00;;;;;;;16.95;81.70;99997.22;5026528;28;20605;-59
2022/07/22 02:36:52;;;;;;;5.20;2.60;;;;;;;16.89;81.94;99992.22;5025637;28;20292;-59
2022/07/22 02:39:23;;;;;;;14.70;2.60;;;;;;;16.81;82.55;99990.78;5027952;28;20315;-59
2022/07/22 02:41:53;;;;;;;4.27;2.13;;;;;;;16.83;83.71;99992.50;5027744;28;20285;-58
2022/07/22 02:44:24;;;;;;;4.60;2.17;;;;;;;16.71;82.84;99981.56;5027564;28;20299;-60
2022/07/22 02:46:54;;;;;;;8.80;2.27;;;;;;;16.68;83.04;100000.16;5027596;28;20649;-59
2022/07/22 02:49:25;;;;;;;9.50;2.63;;;;;;;16.74;83.30;100001.66;5027609;28;20281;-58
2022/07/22 02:51:57;;;;;;;4.90;2.17;;;;;;;16.84;82.91;99995.06;5027597;28;20277;-58
2022/07/22 02:54:28;;;;;;;5.00;2.00;;;;;;;16.90;82.86;99988.63;5021524;28;20354;-59
2022/07/22 02:56:58;;;;;;;9.37;2.13;;;;;;;17.12;82.51;99994.59;5020256;28;20295;-60
2022/07/22 02:59:29;;;;;;;9.57;2.57;;;;;;;17.18;81.27;100004.88;5024426;28;20305;-59
2022/07/22 03:01:59;;;;;;;4.90;2.10;;;;;;;17.21;80.22;99994.19;5026848;28;20281;-60
2022/07/22 03:04:30;;;;;;;3.07;1.87;;;;;;;17.20;80.93;100008.31;5024080;28;20614;-58
2022/07/22 03:07:02;;;;;;;7.50;2.10;;;;;;;17.29;81.14;100000.88;5025400;28;20284;-58
2022/07/22 03:09:33;;;;;;;4.53;1.97;;;;;;;17.38;80.60;99997.78;5026344;28;20558;-58
2022/07/22 03:12:04;;;;;;;4.10;1.83;;;;;;;17.51;81.12;100000.69;5026768;28;20279;-59
2022/07/22 03:14:35;;;;;;;8.80;2.03;;;;;;;17.66;79.91;99995.50;5027104;28;20336;-58
2022/07/22 03:17:07;;;;;;;12.23;2.00;;;;;;;17.69;78.75;100000.63;5026212;28;20327;-58
2022/07/22 03:19:38;;;;;;;3.57;1.60;;;;;;;17.87;78.48;99995.38;5026909;28;20289;-58
2022/07/22 03:22:10;;;;;;;4.17;1.60;;;;;;;18.16;78.43;99988.59;5026889;28;20290;-61
2022/07/22 03:24:40;;;;;;;3.60;1.57;;;;;;;18.37;77.23;99991.91;5026954;28;20489;-59
2022/07/22 03:27:11;;;;;;;10.33;2.23;;;;;;;18.38;76.87;99984.81;5026924;28;20295;-60
2022/07/22 03:29:42;;;;;;;4.50;1.63;;;;;;;18.43;77.28;99994.22;5026853;28;20501;-60
2022/07/22 03:32:12;;;;;;;1.87;1.13;;;;;;;18.46;75.73;99991.41;5026781;28;20288;-58
2022/07/22 03:34:43;;;;;;;2.87;1.37;;;;;;;18.48;75.37;99989.53;5025398;28;20309;-59
2022/07/22 03:37:15;;;;;;;2.03;1.43;;;;;;;18.73;76.55;99975.00;5026358;28;20293;-58
2022/07/22 03:39:46;;;;;;;3.53;1.43;;;;;;;19.09;75.22;99979.19;5026204;28;20288;-58
2022/07/22 03:42:16;;;;;;;2.23;1.20;;;;;;;19.20;74.31;99976.81;5026399;28;20289;-59
2022/07/22 03:44:47;;;;;;;4.40;1.60;;;;;;;19.21;74.15;99962.63;5026476;28;20295;-58
2022/07/22 03:47:21;;;;;;;4.97;1.17;;;;;;;19.35;73.34;99965.34;5026255;28;20296;-58
2022/07/22 03:49:52;;;;;;;6.40;1.60;;;;;;;19.39;72.51;99972.19;5026635;28;20289;-59
2022/07/22 03:52:24;;;;;;;3.23;1.50;;;;;;;19.36;72.71;99967.03;5026547;28;20344;-60
2022/07/22 03:54:55;;;;;;;4.50;1.13;;;;;;;19.58;72.45;99968.44;5026600;28;20308;-59
2022/07/22 03:57:27;;;;;;;5.03;1.70;;;;;;;19.83;72.91;99971.38;5026582;28;20336;-59
2022/07/22 03:59:57;;;;;;;3.03;1.53;;;;;;;19.82;71.40;99964.41;5026104;28;20299;-58
2022/07/22 04:02:28;;;;;;;4.67;1.93;;;;;;;19.67;71.72;99962.66;5026176;28;20288;-58
2022/07/22 04:04:59;;;;;;;1.20;1.10;;;;;;;19.56;72.48;99957.09;5023827;28;20293;-58
2022/07/22 04:07:31;;;;;;;1.53;1.30;;;;;;;19.51;73.00;99956.50;5026703;28;20280;-60
2022/07/22 04:10:06;;;;;;;2.47;1.27;;;;;;;19.61;72.54;99955.88;5026074;28;20351;-60
2022/07/22 04:12:38;;;;;;;4.07;1.20;;;;;;;19.43;71.40;99948.16;5026109;28;20273;-58
2022/07/22 04:15:10;;;;;;;4.03;1.57;;;;;;;19.35;71.55;99965.34;5026096;28;20308;-59
2022/07/22 04:17:40;;;;;;;4.57;1.47;;;;;;;19.19;73.24;99967.16;5025845;28;20336;-59
2022/07/22 04:20:12;;;;;;;2.33;1.43;;;;;;;19.08;72.82;99951.03;5025732;28;20285;-59
2022/07/22 04:22:44;;;;;;;3.80;2.00;;;;;;;19.09;73.24;99958.00;5025864;28;20289;-58
2022/07/22 04:25:15;;;;;;;1.50;1.40;;;;;;;19.20;73.99;99950.34;5025809;28;20620;-59
2022/07/22 04:27:46;;;;;;;4.07;1.87;;;;;;;19.51;73.81;99948.56;5025913;28;20521;-59
2022/07/22 04:30:17;;;;;;;3.07;1.50;;;;;;;19.56;71.46;99942.03;5026212;28;20805;-59
2022/07/22 04:32:47;;;;;;;2.40;1.47;;;;;;;19.51;72.96;99959.16;5025625;28;20288;-59
2022/07/22 04:35:18;;;;;;;2.53;1.90;;;;;;;19.42;72.63;99964.97;5023353;28;20296;-60
2022/07/22 04:37:50;;;;;;;2.80;1.90;;;;;;;19.35;72.64;99970.63;5025630;28;20283;-58
2022/07/22 04:40:22;;;;;;;6.23;2.30;;;;;;;18.95;73.76;99967.59;5025940;28;20366;-60
2022/07/22 04:42:53;;;;;;;2.87;1.77;;;;;;;18.68;74.44;99969.09;5025908;28;20289;-58
2022/07/22 04:45:24;;;;;;;6.23;2.20;;;;;;;18.46;75.43;99964.09;5025520;28;20445;-57
2022/07/22 04:47:54;;;;;;;4.93;2.17;;;;;;;18.45;76.36;99965.91;5025551;28;20287;-59
2022/07/22 04:50:25;;;;;;;4.13;2.20;;;;;;;18.40;75.81;99964.44;5025577;28;20592;-60
2022/07/22 04:52:57;;;;;;;2.87;2.17;;;;;;;18.26;76.35;99959.88;5025453;28;20344;-57
2022/07/22 04:55:29;;;;;;;3.77;2.13;;;;;;;18.09;77.21;99961.59;5025312;28;20300;-58
2022/07/22 04:58:00;;;;;;;9.87;3.27;;;;;;;17.94;77.66;99957.13;5025298;28;20292;-58
2022/07/22 05:00:30;;;;;;;5.90;2.47;;;;;;;18.04;77.63;99963.63;5025731;28;20301;-57
2022/07/22 05:03:01;;;;;;;4.10;2.10;;;;;;;17.95;77.95;99963.28;5025123;28;20273;-59
2022/07/22 05:05:32;;;;;;;2.93;2.40;;;;;;;17.88;78.40;99954.81;5024496;28;20280;-58
2022/07/22 05:08:05;;;;;;;5.07;2.87;;;;;;;17.91;78.14;99965.22;5025113;28;20307;-58
2022/07/22 05:10:35;;;;;;;7.40;3.07;;;;;;;17.90;78.00;99960.88;5025332;28;20313;-57
2022/07/22 05:13:06;;;;;;;6.23;2.43;;;;;;;17.80;78.30;99968.41;5025053;28;20639;-59
2022/07/22 05:15:37;;;;;;;6.07;2.80;;;;;;;17.84;79.51;99958.53;5024984;28;20307;-60
2022/07/22 05:18:07;;;;;;;7.57;2.50;;;;;;;17.89;79.29;99965.28;5024991;28;20300;-58
2022/07/22 05:20:38;;;;;;;8.07;2.50;;;;;;;17.96;79.16;99963.19;5025110;28;20284;-58
2022/07/22 05:23:10;;;;;;;4.10;2.50;;;;;;;17.87;78.45;99963.66;5024956;28;20603;-58
2022/07/22 05:25:41;;;;;;;4.30;2.50;;;;;;;17.79;78.59;99965.81;5025291;28;20285;-58
2022/07/22 05:28:11;;;;;;;5.53;2.63;;;;;;;17.82;79.28;99958.63;5025105;28;20292;-58
2022/07/22 05:30:42;;;;;;;4.93;2.80;;;;;;;17.97;79.92;99951.69;5025121;28;20277;-58
2022/07/22 05:33:12;;;;;;;4.67;2.50;;;;;;;18.25;78.79;99956.38;5024808;28;20292;-58
2022/07/22 05:35:43;;;;;;;4.67;2.87;;;;;;;18.39;77.66;99952.97;5024973;28;20293;-58
2022/07/22 05:38:15;;;;;;;3.27;2.40;;;;;;;18.51;77.76;99957.63;5024966;28;20304;-58
2022/07/22 05:40:46;;;;;;;5.00;2.97;;;;;;;18.71;77.50;99951.25;5025288;28;20727;-58
2022/07/22 05:43:17;;;;;;;4.03;2.47;;;;;;;18.86;75.99;99954.88;5025227;28;20375;-59
2022/07/22 05:45:47;;;;;;;7.27;2.70;;;;;;;18.68;76.26;99953.22;5025530;28;20288;-58
2022/07/22 05:48:18;;;;;;;5.87;2.20;;;;;;;18.64;75.42;99951.66;5028862;28;20269;-58
2022/07/22 05:50:49;;;;;;;5.70;2.13;;;;;;;18.65;76.13;99948.09;5028465;28;20284;-59
2022/07/22 05:53:21;;;;;;;8.13;1.97;;;;;;;18.74;75.28;99944.91;5028627;28;20299;-58
2022/07/22 05:55:52;;;;;;;4.90;2.00;;;;;;;18.80;75.22;99944.63;5028593;28;20614;-58
2022/07/22 05:58:22;;;;;;;5.33;2.20;;;;;;;18.75;74.96;99954.59;5028775;28;20312;-58
2022/07/22 06:00:53;;;;;;;5.30;2.07;;;;;;;18.80;75.05;99951.72;5028661;28;20344;-59
2022/07/22 06:03:23;;;;;;;8.93;2.50;;;;;;;19.01;76.54;99949.66;5028505;28;20284;-59
2022/07/22 06:05:54;;;;;;;6.63;2.30;;;;;;;19.11;74.98;99950.84;5026471;28;20556;-59
2022/07/22 06:08:27;;;;;;;7.20;2.50;;;;;;;19.17;74.74;99955.81;5024587;28;20305;-59
2022/07/22 06:10:59;;;;;;;13.00;2.20;;;;;;;19.11;73.74;99962.28;5026021;28;20322;-57
2022/07/22 06:13:29;;;;;;;7.63;2.03;;;;;;;18.92;73.74;99951.88;5026803;28;20344;-58
2022/07/22 06:16:00;;;;;;;2.77;2.20;;;;;;;18.98;74.77;99955.13;5027843;28;20310;-59
2022/07/22 06:18:31;;;;;;;4.77;1.90;;;;;;;19.06;74.03;99953.75;5026914;28;20576;-58
2022/07/22 06:21:01;;;;;;;2.30;1.83;;;;;;;18.98;73.56;99949.84;5027343;28;20291;-58
2022/07/22 06:23:34;;;;;;;19.30;2.63;;;;;;;18.92;75.59;99953.66;5027342;28;20316;-59
2022/07/22 06:26:05;;;;;;;7.87;1.80;;;;;;;18.83;75.11;99957.69;5026577;28;20273;-58
2022/07/22 06:28:35;;;;;;;6.43;2.13;;;;;;;18.75;75.84;99954.59;5027736;28;20383;-58
2022/07/22 06:31:06;;;;;;;8.60;2.20;;;;;;;18.57;76.20;99950.28;5027841;28;20289;-58
2022/07/22 06:33:37;;;;;;;19.13;2.27;;;;;;;18.44;76.43;99956.25;5027719;28;20355;-58
2022/07/22 06:36:08;;;;;;;2.40;1.60;;;;;;;18.31;76.28;99960.47;5025343;28;20324;-59
2022/07/22 06:38:41;;;;;;;3.13;1.60;;;;;;;18.22;76.92;99955.66;5027326;28;20636;-60
2022/07/22 06:41:13;;;;;;;8.57;2.27;;;;;;;18.05;77.19;99969.81;5027863;28;20331;-58
2022/07/22 06:43:44;;;;;;;6.93;1.80;;;;;;;18.10;76.56;99963.34;5027944;28;20291;-59
2022/07/22 06:46:14;;;;;;;3.93;1.67;;;;;;;18.18;75.67;99970.00;5027039;28;20340;-59
2022/07/22 06:48:45;;;;;;;5.10;1.57;;;;;;;18.25;76.09;99977.53;5027717;28;20277;-60
2022/07/22 06:51:17;;;;;;;9.93;1.63;;;;;;;18.32;75.30;99968.34;5027842;28;20693;-59
2022/07/22 06:53:49;;;;;;;11.93;1.80;;;;;;;18.40;75.15;99975.88;5027536;28;20281;-60
2022/07/22 06:56:20;;;;;;;8.93;1.80;;;;;;;18.43;74.09;99975.72;5027191;28;20315;-59
2022/07/22 06:58:50;;;;;;;8.10;1.63;;;;;;;18.41;74.17;99972.28;5026652;28;20284;-59
2022/07/22 07:01:21;;;;;;;10.83;2.37;;;;;;;18.37;74.75;99973.41;5027208;28;20538;-59
2022/07/22 07:03:52;;;;;;;13.27;2.00;;;;;;;18.36;74.36;99969.03;5027651;28;20318;-58
2022/07/22 07:06:23;;;;;;;11.63;2.00;;;;;;;18.36;75.24;99973.47;5026854;28;20414;-60
2022/07/22 07:08:57;;;;;;;5.13;1.70;;;;;;;18.38;75.23;99968.97;5026713;28;20389;-58
2022/07/22 07:11:29;;;;;;;4.60;1.83;;;;;;;18.30;74.01;99964.06;5027239;28;20348;-59
2022/07/22 07:13:59;;;;;;;2.37;1.70;;;;;;;18.20;73.58;99960.22;5025292;28;20353;-58
2022/07/22 07:16:30;;;;;;;2.63;1.60;;;;;;;18.21;74.51;99967.19;5027099;28;20592;-59
2022/07/22 07:19:01;;;;;;;5.43;1.40;;;;;;;18.30;74.81;99964.06;5020749;28;20302;-59
2022/07/22 07:21:32;;;;;;;10.97;1.67;;;;;;;18.32;74.74;99962.19;5026716;28;20355;-59
2022/07/22 07:24:04;;;;;;;10.87;1.97;;;;;;;18.38;74.56;99964.50;5026732;28;20605;-59
2022/07/22 07:26:35;;;;;;;5.77;1.33;;;;;;;18.31;74.27;99963.97;5024063;28;20285;-59
2022/07/22 07:29:06;;;;;;;2.23;1.60;;;;;;;18.20;73.84;99970.78;5026239;28;20276;-59
2022/07/22 07:31:37;;;;;;;4.07;1.40;;;;;;;18.14;74.43;99973.75;5026212;28;20627;-60
2022/07/22 07:34:08;;;;;;;13.27;1.80;;;;;;;18.05;74.10;99975.94;5026685;28;20268;-59
2022/07/22 07:36:38;;;;;;;14.07;1.90;;;;;;;17.92;74.02;99974.84;5026544;28;20293;-58
2022/07/22 07:39:11;;;;;;;4.80;1.70;;;;;;;17.88;75.19;99982.09;5026402;28;20348;-59
2022/07/22 07:41:41;;;;;;;4.70;1.97;;;;;;;17.94;75.65;99988.00;5026660;28;20509;-59
2022/07/22 07:44:12;;;;;;;1.10;1.00;;;;;;;17.99;76.31;99986.81;5026498;28;20493;-59
2022/07/22 07:46:42;;;;;;;1.07;0.93;;;;;;;17.94;75.69;99994.13;5026411;28;20701;-60
2022/07/22 07:49:13;;;;;;;5.97;1.60;;;;;;;17.84;76.99;99987.59;5024901;28;20280;-60
2022/07/22 07:51:44;;;;;;;5.97;1.30;;;;;;;17.81;77.26;99993.91;5025495;28;20323;-57
2022/07/22 07:54:16;;;;;;;4.53;1.00;;;;;;;17.66;77.39;100003.41;5025229;28;20600;-59
2022/07/22 07:56:51;;;;;;;5.63;1.60;;;;;;;17.53;77.86;99999.69;5026302;28;20517;-59
2022/07/22 07:59:22;;;;;;;6.40;1.33;;;;;;;17.42;78.52;99997.56;5024576;28;21105;-59
2022/07/22 08:01:57;;;;;;;4.13;1.53;;;;;;;17.36;78.49;100007.56;5026315;28;20292;-60
2022/07/22 08:04:29;;;;;;;4.57;1.30;;;;;;;17.39;78.79;100017.97;5025650;28;20316;-60
2022/07/22 08:07:04;;;;;;;2.40;1.43;;;;;;;17.45;79.38;100001.84;5024478;28;20311;-58
2022/07/22 08:09:37;;;;;;;1.47;0.93;;;;;;;17.54;78.55;99996.09;5023841;28;20289;-61
2022/07/22 08:12:08;;;;;;;7.77;1.17;;;;;;;17.51;78.59;100001.53;5025524;28;20284;-61
2022/07/22 08:14:39;;;;;;;4.57;1.20;;;;;;;17.49;78.55;100016.59;5025161;28;20308;-61
2022/07/22 08:17:09;;;;;;;7.07;1.10;;;;;;;17.38;78.13;100011.84;5025561;28;20301;-60
2022/07/22 08:19:40;;;;;;;2.83;1.07;;;;;;;17.28;78.98;100009.75;5024414;28;20649;-61
2022/07/22 08:22:11;;;;;;;9.97;1.67;;;;;;;17.21;79.94;100004.75;5025454;28;20289;-61
2022/07/22 08:24:44;;;;;;;7.77;1.47;;;;;;;17.27;80.24;100018.56;5025648;28;20280;-60
2022/07/22 08:27:14;;;;;;;4.07;1.80;;;;;;;17.18;80.09;100015.44;5024009;28;20280;-60
2022/07/22 08:29:45;;;;;;;3.80;1.20;;;;;;;17.07;80.15;100022.16;5025404;28;20557;-61
2022/07/22 08:32:16;;;;;;;1.37;1.10;;;;;;;16.95;80.74;100029.75;5025612;28;20600;-60
2022/07/22 08:34:47;;;;;;;1.53;1.10;;;;;;;16.88;81.37;100032.72;5025786;28;20296;-59
2022/07/22 08:37:17;;;;;;;5.60;1.57;;;;;;;16.81;81.69;100033.00;5025446;28;20295;-60
2022/07/22 08:39:49;;;;;;;1.87;1.23;;;;;;;16.75;82.07;100033.25;5025606;28;20287;-60
2022/07/22 08:42:20;;;;;;;9.43;1.60;;;;;;;16.57;82.29;100020.88;5025402;28;20285;-60
2022/07/22 08:44:51;;;;;;;6.20;1.50;;;;;;;16.65;82.48;100042.53;5025249;28;20395;-60
2022/07/22 08:47:23;;;;;;;9.33;1.80;;;;;;;16.69;82.67;100044.06;5025271;28;20287;-59
2022/07/22 08:50:10;;;;;;;4.20;1.70;;;;;;;16.73;82.90;100044.81;5025369;28;20316;-60
2022/07/22 08:52:43;;;;;;;6.77;1.30;;;;;;;16.74;82.56;100047.34;5025201;28;20263;-59
2022/07/22 08:55:15;;;;;;;10.80;1.37;;;;;;;16.80;82.43;100047.13;5025276;28;20340;-59
2022/07/22 08:57:47;;;;;;;3.60;1.50;;;;;;;16.78;82.05;100048.97;5023218;28;20335;-59
2022/07/22 09:00:20;;;;;;;7.63;1.30;;;;;;;16.70;82.44;100050.19;5025331;28;20620;-59
2022/07/22 09:02:51;;;;;;;10.77;1.83;;;;;;;16.69;83.04;100046.72;5025172;28;20295;-60
2022/07/22 09:05:21;;;;;;;6.07;1.57;;;;;;;16.66;82.53;100052.13;5025237;28;20461;-59
2022/07/22 09:08:12;;;;;;;3.43;1.53;;;;;;;16.53;82.95;100028.09;5025299;28;20653;-60
2022/07/22 09:10:44;;;;;;;3.33;1.67;;;;;;;16.57;83.03;100056.06;5024937;28;20437;-61
2022/07/22 09:13:18;;;;;;;2.03;1.30;;;;;;;16.56;83.30;100064.03;5025064;28;20561;-60
2022/07/22 09:15:50;;;;;;;3.33;1.50;;;;;;;16.50;83.61;100059.00;5025127;28;20323;-60
2022/07/22 09:18:21;;;;;;;6.70;1.90;;;;;;;16.39;83.80;100073.50;5024994;28;20398;-59
2022/07/22 09:21:00;;;;;;;4.87;1.60;;;;;;;16.34;84.21;100067.59;5026072;28;20337;-60
2022/07/22 09:23:41;;;;;;;1.90;1.33;;;;;;;16.29;84.37;100072.19;5029145;28;20370;-60
2022/07/22 09:26:32;;;;;;;10.70;1.53;;;;;;;16.24;84.56;100063.63;5027085;28;20096;-60
2022/07/22 09:29:04;;;;;;;5.60;1.87;;;;;;;16.16;84.69;100065.75;5028871;28;20294;-59
2022/07/22 09:31:38;;;;;;;6.27;1.83;;;;;;;16.06;85.17;100064.44;5028896;28;20363;-60
2022/07/22 09:34:10;;;;;;;14.03;2.30;;;;;;;15.96;85.88;100059.53;5029024;28;20311;-60
2022/07/22 09:36:57;;;;;;;5.60;1.90;;;;;;;15.90;86.09;100072.97;5028707;28;20505;-61
2022/07/22 09:39:29;;;;;;;9.77;2.10;;;;;;;15.81;86.28;100070.72;5029056;28;20319;-60
2022/07/22 09:42:03;;;;;;;5.93;2.33;;;;;;;15.78;86.63;100081.38;5028793;28;20289;-59
2022/07/22 09:44:34;;;;;;;7.53;2.40;;;;;;;15.69;86.92;100076.44;5028655;28;20288;-59
2022/07/22 09:47:04;;;;;;;4.47;2.33;;;;;;;15.65;87.20;100085.38;5028168;28;20308;-59
2022/07/22 09:49:37;;;;;;;12.43;2.10;;;;;;;15.45;87.39;100057.22;5028372;28;20281;-59
2022/07/22 09:52:08;;;;;;;5.17;2.03;;;;;;;15.53;87.80;100071.81;5028257;28;20347;-60
2022/07/22 09:54:40;;;;;;;5.07;2.40;;;;;;;15.50;87.88;100071.94;5028290;28;20349;-60
2022/07/22 09:57:12;;;;;;;7.70;2.63;;;;;;;15.47;87.99;100072.03;5028260;28;20616;-62
2022/07/22 09:59:43;;;;;;;5.17;2.30;;;;;;;15.47;88.20;100077.28;5028202;28;20298;-60
2022/07/22 10:02:16;;;;;;;8.83;2.90;;;;;;;15.41;88.43;100072.28;5009043;28;20429;-61
2022/07/22 10:04:49;;;;;;;5.47;2.33;;;;;;;15.39;88.65;100078.53;5009712;28;20313;-60
2022/07/22 10:07:20;;;;;;;7.50;2.30;;;;;;;15.42;88.87;100074.00;5016348;28;20600;-60
2022/07/22 10:09:54;;;;;;;4.63;2.30;;;;;;;15.43;88.62;100091.53;5011232;28;20295;-60
2022/07/22 10:12:27;;;;;;;6.47;2.17;;;;;;;15.31;89.11;100082.31;5020362;28;20276;-61
2022/07/22 10:14:58;;;;;;;5.53;2.17;;;;;;;15.23;90.06;100089.66;5019560;28;20608;-59
2022/07/22 10:17:30;;;;;;;6.40;2.10;;;;;;;15.17;90.48;100089.03;5011725;28;20360;-59
2022/07/22 10:20:01;;;;;;;7.97;2.27;;;;;;;15.14;91.07;100083.88;5009539;28;20631;-61
2022/07/22 10:22:50;;;;;;;6.07;2.27;;;;;;;15.16;91.10;100092.59;5010019;28;20274;-60
2022/07/22 10:25:29;;;;;;;7.93;2.43;;;;;;;15.09;91.40;100091.94;5001527;28;20372;-60
2022/07/22 10:28:03;;;;;;;6.83;2.30;;;;;;;15.04;92.02;100086.84;5005982;28;20354;-59
2022/07/22 10:30:38;;;;;;;3.87;2.13;;;;;;;15.01;92.26;100089.59;5013624;28;20299;-60
2022/07/22 10:33:14;;;;;;;7.50;2.40;;;;;;;15.04;92.49;100094.75;5011083;28;20307;-58
2022/07/22 10:35:57;;;;;;;9.90;2.90;;;;;;;15.06;92.64;100100.81;5008719;28;20289;-60
2022/07/22 10:38:29;;;;;;;8.13;2.10;;;;;;;14.98;92.86;100095.00;5013268;28;20301;-60
2022/07/22 10:41:01;;;;;;;8.40;2.17;;;;;;;14.89;93.10;100095.31;5003263;28;20404;-60
2022/07/22 10:43:47;;;;;;;5.00;2.37;;;;;;;14.83;93.92;100098.19;5002545;28;20475;-59
2022/07/22 10:46:18;;;;;;;5.77;2.10;;;;;;;14.81;93.97;100102.66;5000103;28;20746;-60
2022/07/22 10:48:49;;;;;;;10.10;2.30;;;;;;;14.78;94.20;100108.03;5000993;28;20304;-60
2022/07/22 10:51:20;;;;;;;4.63;2.10;;;;;;;14.73;94.89;100107.34;5010084;28;20316;-59
2022/07/22 10:53:56;;;;;;;9.40;2.20;;;;;;;14.71;95.00;100101.25;5006754;28;20280;-59
2022/07/22 10:56:29;;;;;;;7.20;2.20;;;;;;;14.72;95.29;100114.34;5003151;28;20286;-60
2022/07/22 10:59:11;;;;;;;4.40;1.97;;;;;;;14.69;95.32;100118.88;5000307;28;20358;-59
2022/07/22 11:01:43;;;;;;;8.77;2.23;;;;;;;14.64;95.78;100117.25;5005238;28;20281;-60
2022/07/22 11:04:16;;;;;;;8.70;2.17;;;;;;;14.61;96.05;100125.25;5007100;28;20458;-58
2022/07/22 11:06:48;;;;;;;5.63;2.40;;;;;;;14.64;96.10;100125.13;5001078;28;20281;-60
2022/07/22 11:09:21;;;;;;;5.70;1.80;;;;;;;14.64;96.09;100122.50;5001159;28;20291;-59
2022/07/22 11:11:53;;;;;;;8.67;2.40;;;;;;;14.68;96.11;100133.78;5001165;28;20917;-59
2022/07/22 11:14:30;;;;;;;7.60;2.10;;;;;;;14.66;96.14;100133.84;5000758;28;20285;-59
2022/07/22 11:17:01;;;;;;;9.90;2.60;;;;;;;14.66;96.00;100136.47;5001203;28;20301;-59
2022/07/22 11:19:33;;;;;;;4.20;1.80;;;;;;;14.65;96.03;100137.38;5000933;28;20319;-58
2022/07/22 11:22:06;;;;;;;6.67;2.20;;;;;;;14.59;96.51;100139.38;5000728;28;20282;-59
2022/07/22 11:24:38;;;;;;;8.47;2.30;;;;;;;14.54;96.68;100131.63;5005215;28;20364;-61
2022/07/22 11:27:15;;;;;;;6.13;1.77;;;;;;;14.53;97.05;100135.19;5020554;28;20367;-59
2022/07/22 11:29:51;;;;;;;7.70;2.13;;;;;;;14.46;97.09;100128.38;5020552;28;20269;-61
2022/07/22 11:32:23;;;;;;;8.23;2.23;;;;;;;14.46;97.88;100131.00;5017057;28;20339;-61
2022/07/22 11:34:58;;;;;;;9.13;2.77;;;;;;;14.42;98.11;100143.38;5000641;28;20300;-58
2022/07/22 11:37:30;;;;;;;3.77;1.90;;;;;;;14.40;98.31;100139.09;5000483;28;20278;-57
2022/07/22 11:40:02;;;;;;;6.37;2.10;;;;;;;14.42;98.59;100137.28;5000477;28;20297;-58
2022/07/22 11:42:34;;;;;;;3.50;1.70;;;;;;;14.39;98.96;100140.00;4998701;28;20431;-57
2022/07/22 11:45:07;;;;;;;8.53;2.17;;;;;;;14.37;98.94;100150.56;5021112;28;20449;-58
2022/07/22 11:47:38;;;;;;;4.47;1.80;;;;;;;14.37;99.13;100149.72;5025883;28;20281;-58
2022/07/22 11:50:11;;;;;;;8.10;1.90;;;;;;;14.40;99.27;100154.88;5025627;28;20339;-58